| time (UTC) | temp F | wind direction | speed MPH | gust MPH | rain 1hr in | rain 24hr in | rain mn in | humidity % | barometer mb |
| 20260831171818 | 69 | 225 | 5.0 | 11.0 | 0.00 | 0.33 | 0.30 | 78 | 1014.7 |
| 20260831170820 | 69 | 293 | 7.0 | 13.0 | 0.00 | 0.33 | 0.30 | 78 | 1014.6 |
| 20260831165840 | 69 | 248 | 6.0 | 10.0 | 0.00 | 0.33 | 0.30 | 78 | 1014.6 |
| 20260831164851 | 69 | 270 | 6.0 | 12.0 | 0.00 | 0.33 | 0.30 | 78 | 1014.5 |
| 20260831163841 | 70 | 248 | 5.0 | 8.0 | 0.00 | 0.33 | 0.30 | 77 | 1014.4 |
| 20260831163019 | 70 | 270 | 5.0 | 10.0 | 0.00 | 0.33 | 0.30 | 76 | 1014.2 |
| 20260831162320 | 70 | 248 | 5.0 | 9.0 | 0.00 | 0.33 | 0.30 | 75 | 1014.1 |
| 20260831161330 | 70 | 270 | 6.0 | 9.0 | 0.00 | 0.33 | 0.30 | 75 | 1014.1 |
| 20260831160350 | 70 | 270 | 5.0 | 10.0 | 0.00 | 0.33 | 0.30 | 74 | 1014.0 |
| 20260831155320 | 70 | 248 | 6.0 | 11.0 | 0.00 | 0.34 | 0.30 | 74 | 1013.8 |
| 20260831154320 | 71 | 248 | 5.0 | 9.0 | 0.00 | 0.36 | 0.30 | 74 | 1013.7 |
| 20260831153320 | 71 | 248 | 5.0 | 8.0 | 0.00 | 0.38 | 0.30 | 72 | 1013.5 |
| 20260831152320 | 71 | 270 | 5.0 | 8.0 | 0.00 | 0.38 | 0.30 | 72 | 1013.5 |
| 20260831151320 | 71 | 225 | 4.0 | 8.0 | 0.00 | 0.38 | 0.30 | 70 | 1013.4 |
| 20260831150352 | 71 | 293 | 6.0 | 10.0 | 0.00 | 0.38 | 0.30 | 70 | 1013.4 |
| 20260831145352 | 71 | 248 | 6.0 | 9.0 | 0.00 | 0.38 | 0.30 | 70 | 1013.3 |
| 20260831144401 | 71 | 270 | 4.0 | 7.0 | 0.00 | 0.38 | 0.30 | 70 | 1013.3 |
| 20260831143324 | 72 | 225 | 5.0 | 9.0 | 0.00 | 0.38 | 0.30 | 69 | 1013.1 |
| 20260831142320 | 72 | 248 | 5.0 | 7.0 | 0.00 | 0.38 | 0.30 | 70 | 1012.9 |
| 20260831141513 | 71 | 270 | 4.0 | 8.0 | 0.00 | 0.38 | 0.30 | 68 | 1012.9 |
| 20260831140432 | 72 | 248 | 5.0 | 14.0 | 0.00 | 0.38 | 0.30 | 67 | 1012.8 |
| 20260831135400 | 71 | 270 | 3.0 | 6.0 | 0.00 | 0.38 | 0.30 | 67 | 1012.7 |
| 20260831134320 | 71 | 270 | 5.0 | 9.0 | 0.00 | 0.38 | 0.30 | 66 | 1012.5 |
| 20260831133340 | 72 | 248 | 5.0 | 8.0 | 0.00 | 0.38 | 0.30 | 64 | 1012.4 |
| 20260831132330 | 72 | 248 | 5.0 | 8.0 | 0.00 | 0.38 | 0.30 | 66 | 1012.4 |
| 20260831131320 | 72 | 248 | 4.0 | 6.0 | 0.00 | 0.38 | 0.30 | 66 | 1012.1 |
| 20260831130319 | 71 | 270 | 4.0 | 8.0 | 0.00 | 0.38 | 0.30 | 68 | 1011.9 |
| 20260831125339 | 69 | 270 | 4.0 | 8.0 | 0.00 | 0.38 | 0.30 | 72 | 1011.9 |
| 20260831124527 | 68 | 293 | 3.0 | 5.0 | 0.00 | 0.38 | 0.30 | 72 | 1011.7 |
| 20260831124220 | 68 | 270 | 4.0 | 7.0 | 0.00 | 0.38 | 0.30 | 73 | 1011.7 |
| 20260831123219 | 68 | 270 | 3.0 | 6.0 | 0.00 | 0.38 | 0.30 | 72 | 1011.6 |
| 20260831122219 | 69 | 225 | 2.0 | 7.0 | 0.00 | 0.38 | 0.30 | 72 | 1011.4 |
| 20260831121220 | 68 | 270 | 5.0 | 10.0 | 0.00 | 0.38 | 0.30 | 71 | 1011.4 |
| 20260831120220 | 70 | 248 | 4.0 | 7.0 | 0.00 | 0.38 | 0.30 | 69 | 1011.1 |
| 20260831115219 | 71 | 270 | 5.0 | 8.0 | 0.00 | 0.38 | 0.30 | 68 | 1011.0 |
| 20260831114230 | 70 | 270 | 6.0 | 10.0 | 0.00 | 0.38 | 0.30 | 68 | 1010.9 |
| 20260831113241 | 71 | 270 | 6.0 | 14.0 | 0.00 | 0.38 | 0.30 | 69 | 1010.8 |
| 20260831112230 | 71 | 248 | 3.0 | 4.0 | 0.00 | 0.38 | 0.30 | 68 | 1010.7 |
| 20260831111413 | 71 | 270 | 4.0 | 7.0 | 0.00 | 0.38 | 0.30 | 70 | 1010.6 |
| 20260831111151 | 71 | 270 | 5.0 | 10.0 | 0.00 | 0.38 | 0.30 | 70 | 1010.5 |
| 20260831110200 | 69 | 270 | 5.0 | 10.0 | 0.00 | 0.38 | 0.30 | 75 | 1010.5 |
| 20260831105200 | 69 | 248 | 6.0 | 10.0 | 0.00 | 0.38 | 0.30 | 72 | 1010.5 |
| 20260831104210 | 69 | 270 | 6.0 | 10.0 | 0.00 | 0.38 | 0.30 | 72 | 1010.4 |
| 20260831103119 | 69 | 293 | 5.0 | 8.0 | 0.00 | 0.38 | 0.30 | 72 | 1010.2 |
| 20260831102141 | 69 | 270 | 2.0 | 5.0 | 0.00 | 0.38 | 0.30 | 73 | 1010.2 |
| 20260831101152 | 68 | 248 | 6.0 | 11.0 | 0.00 | 0.38 | 0.30 | 73 | 1010.2 |
| 20260831100119 | 68 | 270 | 5.0 | 11.0 | 0.00 | 0.38 | 0.30 | 72 | 1009.9 |
| 20260831095151 | 69 | 270 | 5.0 | 8.0 | 0.00 | 0.38 | 0.30 | 75 | 1009.7 |
| 20260831094119 | 69 | 270 | 6.0 | 10.0 | 0.00 | 0.38 | 0.30 | 75 | 1009.6 |
| 20260831093119 | 68 | 270 | 5.0 | 9.0 | 0.00 | 0.38 | 0.30 | 79 | 1009.5 |
| 20260831092119 | 67 | 293 | 4.0 | 6.0 | 0.00 | 0.38 | 0.30 | 83 | 1009.3 |
| 20260831091119 | 67 | 248 | 4.0 | 8.0 | 0.00 | 0.38 | 0.30 | 85 | 1009.3 |
| 20260831090119 | 66 | 225 | 4.0 | 6.0 | 0.00 | 0.38 | 0.30 | 86 | 1009.2 |
| 20260831085141 | 65 | 225 | 10.0 | 15.0 | 0.00 | 0.38 | 0.30 | 88 | 1009.1 |
| 20260831084129 | 64 | 270 | 3.0 | 6.0 | 0.00 | 0.38 | 0.30 | 91 | 1008.9 |
| 20260831083338 | 63 | 270 | 4.0 | 6.0 | 0.00 | 0.38 | 0.30 | 92 | 1008.7 |
| 20260831082719 | 62 | 225 | 5.0 | 7.0 | 0.00 | 0.38 | 0.30 | 92 | 1008.7 |
| 20260831081740 | 62 | 225 | 4.0 | 5.0 | 0.00 | 0.38 | 0.30 | 92 | 1008.7 |
| 20260831080719 | 61 | 248 | 5.0 | 7.0 | 0.00 | 0.38 | 0.30 | 92 | 1008.6 |
| 20260831075719 | 61 | 270 | 4.0 | 6.0 | 0.01 | 0.38 | 0.30 | 92 | 1008.5 |
| 20260831074719 | 61 | 225 | 4.0 | 7.0 | 0.01 | 0.38 | 0.30 | 92 | 1008.3 |
| 20260831073929 | 61 | 225 | 6.0 | 11.0 | 0.01 | 0.38 | 0.30 | 93 | 1008.3 |
| 20260831072839 | 60 | 225 | 6.0 | 10.0 | 0.02 | 0.38 | 0.30 | 93 | 1008.3 |
| 20260831071819 | 60 | 225 | 4.0 | 7.0 | 0.02 | 0.38 | 0.30 | 93 | 1008.3 |
| 20260831070819 | 60 | 225 | 5.0 | 9.0 | 0.02 | 0.38 | 0.30 | 93 | 1008.2 |
| 20260831065830 | 60 | 248 | 3.0 | 8.0 | 0.02 | 0.37 | 0.29 | 93 | 1008.2 |
| 20260831065036 | 60 | 225 | 5.0 | 9.0 | 0.02 | 0.37 | 0.29 | 93 | 1008.1 |
| 20260831063839 | 60 | 248 | 5.0 | 11.0 | 0.02 | 0.37 | 0.29 | 93 | 1008.0 |
| 20260831062819 | 60 | 248 | 5.0 | 7.0 | 0.02 | 0.36 | 0.28 | 92 | 1008.1 |
| 20260831061819 | 61 | 225 | 2.0 | 4.0 | 0.02 | 0.36 | 0.28 | 92 | 1007.9 |
| 20260831060830 | 61 | 225 | 6.0 | 11.0 | 0.02 | 0.36 | 0.28 | 92 | 1007.9 |
| 20260831055850 | 61 | 248 | 6.0 | 11.0 | 0.01 | 0.35 | 0.28 | 92 | 1007.8 |
| 20260831054819 | 61 | 225 | 7.0 | 11.0 | 0.00 | 0.35 | 0.27 | 92 | 1007.7 |
| 20260831053819 | 61 | 225 | 7.0 | 15.0 | 0.00 | 0.35 | 0.27 | 92 | 1007.6 |
| 20260831052819 | 61 | 248 | 4.0 | 7.0 | 0.00 | 0.35 | 0.27 | 92 | 1007.6 |
| 20260831051829 | 61 | 203 | 10.0 | 13.0 | 0.00 | 0.35 | 0.27 | 92 | 1007.0 |
| 20260831050818 | 61 | 225 | 7.0 | 14.0 | 0.00 | 0.35 | 0.27 | 92 | 1007.1 |
| 20260831045840 | 61 | 225 | 7.0 | 10.0 | 0.00 | 0.35 | 0.27 | 92 | 1007.2 |
| 20260831044840 | 61 | 203 | 9.0 | 13.0 | 0.00 | 0.35 | 0.27 | 92 | 1006.9 |
| 20260831043829 | 61 | 248 | 6.0 | 13.0 | 0.01 | 0.35 | 0.27 | 92 | 1006.9 |
| 20260831042819 | 61 | 203 | 9.0 | 13.0 | 0.01 | 0.35 | 0.27 | 93 | 1006.9 |
| 20260831041850 | 61 | 225 | 7.0 | 10.0 | 0.01 | 0.35 | 0.27 | 92 | 1006.8 |
| 20260831040829 | 61 | 203 | 11.0 | 17.0 | 0.01 | 0.35 | 0.27 | 92 | 1006.8 |
| 20260831035838 | 61 | 225 | 9.0 | 15.0 | 0.01 | 0.35 | 0.27 | 93 | 1006.9 |
| 20260831034829 | 61 | 225 | 7.0 | 11.0 | 0.02 | 0.35 | 0.27 | 93 | 1007.0 |
| 20260831033818 | 61 | 248 | 8.0 | 13.0 | 0.06 | 0.34 | 0.26 | 93 | 1007.1 |
| 20260831032818 | 61 | 225 | 8.0 | 14.0 | 0.06 | 0.34 | 0.26 | 93 | 1007.3 |
| 20260831031818 | 61 | 225 | 6.0 | 10.0 | 0.06 | 0.35 | 0.26 | 93 | 1007.2 |
| 20260831030818 | 61 | 248 | 6.0 | 11.0 | 0.06 | 0.35 | 0.26 | 94 | 1007.2 |
| 20260831025819 | 61 | 248 | 6.0 | 10.0 | 0.06 | 0.35 | 0.26 | 94 | 1007.5 |
| 20260831024829 | 61 | 248 | 3.0 | 5.0 | 0.06 | 0.35 | 0.25 | 94 | 1007.6 |
| 20260831023818 | 61 | 225 | 6.0 | 11.0 | 0.01 | 0.30 | 0.20 | 94 | 1007.4 |
| 20260831023015 | 61 | 225 | 7.0 | 10.0 | 0.00 | 0.29 | 0.20 | 94 | 1007.6 |
| 20260831022550 | 61 | 225 | 8.0 | 12.0 | 0.00 | 0.29 | 0.20 | 94 | 1007.5 |
| 20260831021551 | 61 | 203 | 5.0 | 12.0 | 0.00 | 0.29 | 0.20 | 94 | 1007.7 |
| 20260831020519 | 61 | 248 | 4.0 | 7.0 | 0.00 | 0.29 | 0.20 | 94 | 1007.6 |
| 20260831015518 | 61 | 203 | 4.0 | 7.0 | 0.02 | 0.29 | 0.20 | 94 | 1007.7 |
| 20260831014529 | 61 | 225 | 4.0 | 5.0 | 0.02 | 0.29 | 0.20 | 94 | 1007.9 |
| 20260831013519 | 61 | 225 | 5.0 | 8.0 | 0.02 | 0.29 | 0.20 | 94 | 1008.0 |
| 20260831012550 | 61 | 225 | 2.0 | 4.0 | 0.08 | 0.29 | 0.20 | 93 | 1008.2 |
| 20260831011519 | 61 | 203 | 3.0 | 6.0 | 0.18 | 0.29 | 0.20 | 94 | 1008.1 |
| 20260831010518 | 61 | 225 | 4.0 | 8.0 | 0.20 | 0.29 | 0.20 | 94 | 1008.5 |
| 20260831005518 | 61 | 203 | 2.0 | 4.0 | 0.18 | 0.28 | 0.18 | 93 | 1008.4 |
| 20260831004518 | 61 | 225 | 3.0 | 5.0 | 0.18 | 0.28 | 0.18 | 93 | 1008.3 |
| 20260831003519 | 62 | 225 | 4.0 | 7.0 | 0.18 | 0.28 | 0.18 | 93 | 1008.3 |
| 20260831002518 | 62 | 270 | 2.0 | 3.0 | 0.12 | 0.21 | 0.12 | 92 | 1008.6 |
| 20260831001538 | 62 | 225 | 5.0 | 8.0 | 0.02 | 0.11 | 0.02 | 91 | 1008.1 |
| 20260831000529 | 63 | 203 | 7.0 | 9.0 | 0.00 | 0.09 | 0.00 | 91 | 1008.4 |
| 20260830235518 | 63 | 225 | 5.0 | 8.0 | 0.00 | 0.09 | 0.09 | 91 | 1008.2 |
| 20260830234519 | 63 | 248 | 5.0 | 8.0 | 0.00 | 0.10 | 0.09 | 91 | 1008.2 |
| 20260830233714 | 63 | 225 | 7.0 | 11.0 | 0.00 | 0.10 | 0.09 | 91 | 1008.3 |
| 20260830233419 | 63 | 203 | 6.0 | 10.0 | 0.00 | 0.10 | 0.09 | 91 | 1008.2 |
| 20260830232613 | 63 | 203 | 8.0 | 11.0 | 0.00 | 0.10 | 0.09 | 91 | 1008.2 |
| 20260830232219 | 63 | 203 | 8.0 | 13.0 | 0.00 | 0.10 | 0.09 | 91 | 1008.3 |
| 20260830231218 | 63 | 203 | 7.0 | 11.0 | 0.00 | 0.10 | 0.09 | 91 | 1008.5 |
| 20260830230219 | 63 | 203 | 5.0 | 7.0 | 0.00 | 0.10 | 0.09 | 91 | 1008.5 |
| 20260830225412 | 63 | 180 | 4.0 | 7.0 | 0.00 | 0.10 | 0.09 | 91 | 1008.4 |
| 20260830224851 | 63 | 203 | 3.0 | 4.0 | 0.00 | 0.10 | 0.09 | 91 | 1008.5 |
| 20260830224012 | 63 | 248 | 4.0 | 5.0 | 0.00 | 0.10 | 0.09 | 91 | 1008.7 |
| 20260830223319 | 63 | 225 | 5.0 | 6.0 | 0.00 | 0.10 | 0.09 | 91 | 1008.7 |
| 20260830222319 | 63 | 203 | 3.0 | 3.0 | 0.00 | 0.10 | 0.09 | 91 | 1008.7 |
| 20260830221319 | 63 | 225 | 2.0 | 4.0 | 0.00 | 0.10 | 0.09 | 91 | 1008.7 |
| 20260830220351 | 63 | 225 | 4.0 | 8.0 | 0.00 | 0.10 | 0.09 | 91 | 1008.8 |
| 20260830215318 | 63 | 203 | 3.0 | 5.0 | 0.00 | 0.10 | 0.09 | 91 | 1008.7 |
| 20260830214340 | 63 | 225 | 4.0 | 8.0 | 0.00 | 0.10 | 0.09 | 91 | 1008.5 |
| 20260830213318 | 63 | 203 | 3.0 | 4.0 | 0.00 | 0.10 | 0.09 | 91 | 1008.6 |
| 20260830212318 | 63 | 203 | 4.0 | 7.0 | 0.00 | 0.10 | 0.09 | 92 | 1008.5 |
| 20260830211318 | 63 | 203 | 4.0 | 6.0 | 0.00 | 0.10 | 0.09 | 92 | 1008.5 |
| 20260830210349 | 63 | 225 | 2.0 | 4.0 | 0.00 | 0.10 | 0.09 | 91 | 1008.5 |
| 20260830205319 | 63 | 225 | 4.0 | 5.0 | 0.00 | 0.10 | 0.09 | 91 | 1008.5 |
| 20260830204533 | 63 | 180 | 4.0 | 6.0 | 0.00 | 0.10 | 0.09 | 91 | 1008.7 |
| 20260830203429 | 63 | 248 | 6.0 | 11.0 | 0.00 | 0.10 | 0.09 | 91 | 1008.8 |
| 20260830202419 | 63 | 225 | 5.0 | 9.0 | 0.00 | 0.10 | 0.09 | 91 | 1009.0 |
| 20260830201439 | 63 | 225 | 4.0 | 5.0 | 0.00 | 0.10 | 0.09 | 92 | 1009.1 |
| 20260830200429 | 63 | 225 | 3.0 | 5.0 | 0.01 | 0.10 | 0.09 | 92 | 1009.3 |
| 20260830195439 | 63 | 225 | 4.0 | 6.0 | 0.01 | 0.10 | 0.09 | 92 | 1009.3 |
| 20260830194439 | 63 | 225 | 4.0 | 6.0 | 0.02 | 0.10 | 0.09 | 92 | 1009.1 |
| 20260830193429 | 63 | 180 | 3.0 | 6.0 | 0.03 | 0.10 | 0.09 | 92 | 1009.1 |
| 20260830192418 | 63 | 180 | 3.0 | 5.0 | 0.03 | 0.10 | 0.09 | 92 | 1009.0 |
| 20260830191429 | 64 | 203 | 4.0 | 8.0 | 0.03 | 0.10 | 0.09 | 91 | 1008.9 |
| 20260830190418 | 64 | 203 | 4.0 | 8.0 | 0.02 | 0.09 | 0.09 | 91 | 1009.1 |
| 20260830185431 | 65 | 180 | 6.0 | 10.0 | 0.02 | 0.09 | 0.09 | 90 | 1009.2 |
| 20260830184420 | 65 | 248 | 6.0 | 9.0 | 0.02 | 0.09 | 0.08 | 89 | 1009.2 |
| 20260830183440 | 66 | 180 | 4.0 | 6.0 | 0.00 | 0.07 | 0.06 | 88 | 1009.3 |
| 20260830182449 | 66 | 180 | 2.0 | 4.0 | 0.00 | 0.07 | 0.06 | 88 | 1009.2 |
| 20260830181420 | 66 | 225 | 2.0 | 3.0 | 0.00 | 0.07 | 0.06 | 88 | 1009.2 |
| 20260830180418 | 66 | 203 | 2.0 | 3.0 | 0.00 | 0.07 | 0.06 | 87 | 1009.2 |
| 20260830175451 | 66 | 0.0 | 1.0 | 0.00 | 0.07 | 0.06 | 87 | 1009.4 | |
| 20260830174420 | 66 | 225 | 6.0 | 9.0 | 0.00 | 0.07 | 0.06 | 88 | 1009.7 |
| 20260830173431 | 66 | 180 | 2.0 | 4.0 | 0.00 | 0.07 | 0.06 | 90 | 1009.6 |